Home > Products > Valid Products > TAF

000
FTUS43 KGID 012320
TAFGRI
TAF
KGRI 012320Z 0200/0224 VRB04KT P6SM SCT150
     FM021100 VRB04KT P6SM FEW150
     FM021500 20008KT P6SM SKC=



000
FTUS43 KGID 012320
TAFGRI
TAF
KGRI 012320Z 0200/0224 VRB04KT P6SM SCT150
     FM021100 VRB04KT P6SM FEW150
     FM021500 20008KT P6SM SKC=



000
FTUS43 KGID 011720
TAFGRI
TAF
KGRI 011720Z 0118/0218 VRB06KT P6SM SCT150
     FM020200 VRB06KT P6SM VCTS SCT100CB
     FM020700 VRB06KT P6SM SCT030=



000
FTUS43 KGID 011720
TAFGRI
TAF
KGRI 011720Z 0118/0218 VRB06KT P6SM SCT150
     FM020200 VRB06KT P6SM VCTS SCT100CB
     FM020700 VRB06KT P6SM SCT030=



000
FTUS43 KGID 011120
TAFGRI
TAF
KGRI 011120Z 0112/0212 34010KT P6SM SCT150
     FM012000 34005KT P6SM VCTS SCT100CB
     FM020000 16004KT P6SM SCT150=



000
FTUS43 KGID 011120
TAFGRI
TAF
KGRI 011120Z 0112/0212 34010KT P6SM SCT150
     FM012000 34005KT P6SM VCTS SCT100CB
     FM020000 16004KT P6SM SCT150=



000
FTUS43 KGID 010538
TAFGRI
TAF
KGRI 010538Z 0106/0206 32006KT P6SM SCT250
     FM011100 31006KT 3SM BR SKC
     FM011300 34010KT P6SM SCT150
     FM012000 34005KT P6SM VCTS SCT100CB
     FM020000 16004KT P6SM SCT150=



000
FTUS43 KGID 010538
TAFGRI
TAF
KGRI 010538Z 0106/0206 32006KT P6SM SCT250
     FM011100 31006KT 3SM BR SKC
     FM011300 34010KT P6SM SCT150
     FM012000 34005KT P6SM VCTS SCT100CB
     FM020000 16004KT P6SM SCT150=



000
FTUS43 KGID 010520
TAFGRI
TAF
KGRI 010520Z 0106/0206 32006KT P6SM SCT200
     FM011100 33006KT 4SM BR SKC
     FM011300 34010KT P6SM SCT150=



000
FTUS43 KGID 010520
TAFGRI
TAF
KGRI 010520Z 0106/0206 32006KT P6SM SCT200
     FM011100 33006KT 4SM BR SKC
     FM011300 34010KT P6SM SCT150=



000
FTUS43 KGID 312320
TAFGRI
TAF
KGRI 312320Z 0100/0124 30012G18KT P6SM VCTS SCT050CB BKN250
     FM010200 32010KT P6SM SCT120
     FM010800 32008KT P6SM SCT250=



000
FTUS43 KGID 312320
TAFGRI
TAF
KGRI 312320Z 0100/0124 30012G18KT P6SM VCTS SCT050CB BKN250
     FM010200 32010KT P6SM SCT120
     FM010800 32008KT P6SM SCT250=



000
FTUS43 KGID 312013 AAA
TAFGRI
TAF AMD
KGRI 312013Z 3120/0118 30010KT P6SM VCTS SCT050CB BKN250
      TEMPO 0102/0106 P6SM -TSRA BKN050CB
     FM010800 32008KT P6SM SCT250=



000
FTUS43 KGID 312013 AAA
TAFGRI
TAF AMD
KGRI 312013Z 3120/0118 30010KT P6SM VCTS SCT050CB BKN250
      TEMPO 0102/0106 P6SM -TSRA BKN050CB
     FM010800 32008KT P6SM SCT250=



000
FTUS43 KGID 311720
TAFGRI
TAF
KGRI 311720Z 3118/0118 20012G18KT P6SM BKN250
     FM312000 20012KT P6SM VCTS SCT050CB BKN250
      TEMPO 0102/0106 P6SM -TSRA BKN050CB
     FM010800 32008KT P6SM SCT250=



000
FTUS43 KGID 311720
TAFGRI
TAF
KGRI 311720Z 3118/0118 20012G18KT P6SM BKN250
     FM312000 20012KT P6SM VCTS SCT050CB BKN250
      TEMPO 0102/0106 P6SM -TSRA BKN050CB
     FM010800 32008KT P6SM SCT250=



000
FTUS43 KGID 311120
TAFGRI
TAF
KGRI 311120Z 3112/0112 19012KT P6SM BKN250 WS005/20042KT
     FM311500 19012G18KT P6SM BKN250
     FM311900 20009KT P6SM VCTS SCT050CB BKN250
      TEMPO 0102/0106 P6SM -TSRA BKN050CB=



000
FTUS43 KGID 311120
TAFGRI
TAF
KGRI 311120Z 3112/0112 19012KT P6SM BKN250 WS005/20042KT
     FM311500 19012G18KT P6SM BKN250
     FM311900 20009KT P6SM VCTS SCT050CB BKN250
      TEMPO 0102/0106 P6SM -TSRA BKN050CB=



000
FTUS43 KGID 310539
TAFGRI
TAF
KGRI 310539Z 3106/0106 19012KT P6SM BKN250 WS005/20042KT
     FM311100 19012G18KT P6SM BKN250
     FM311900 20009KT P6SM VCTS SCT050CB BKN250
     FM010000 02007KT P6SM BKN250
      TEMPO 0102/0106 P6SM TSRA BKN050CB=



000
FTUS43 KGID 310539
TAFGRI
TAF
KGRI 310539Z 3106/0106 19012KT P6SM BKN250 WS005/20042KT
     FM311100 19012G18KT P6SM BKN250
     FM311900 20009KT P6SM VCTS SCT050CB BKN250
     FM010000 02007KT P6SM BKN250
      TEMPO 0102/0106 P6SM TSRA BKN050CB=



000
FTUS43 KGID 302335
TAFGRI
TAF
KGRI 302335Z 3100/3124 15009KT P6SM FEW150
     FM310500 17011KT P6SM SCT150 WS005/20042KT
     FM311400 18013KT P6SM SCT150
     FM312300 VRB06KT P6SM VCTS SCT040CB BKN150=



000
FTUS43 KGID 302335
TAFGRI
TAF
KGRI 302335Z 3100/3124 15009KT P6SM FEW150
     FM310500 17011KT P6SM SCT150 WS005/20042KT
     FM311400 18013KT P6SM SCT150
     FM312300 VRB06KT P6SM VCTS SCT040CB BKN150=



000
FTUS43 KGID 301722
TAFGRI
TAF
KGRI 301722Z 3018/3118 16008KT P6SM SKC
     FM310900 20012KT P6SM VCTS SCT080CB
     FM311400 20014G22KT P6SM SCT120=



000
FTUS43 KGID 301722
TAFGRI
TAF
KGRI 301722Z 3018/3118 16008KT P6SM SKC
     FM310900 20012KT P6SM VCTS SCT080CB
     FM311400 20014G22KT P6SM SCT120=



000
FTUS43 KGID 301129
TAFGRI
TAF
KGRI 301129Z 3012/3112 17009KT P6SM SKC
     FM310900 19013KT P6SM VCTS SCT080CB=



000
FTUS43 KGID 301129
TAFGRI
TAF
KGRI 301129Z 3012/3112 17009KT P6SM SKC
     FM310900 19013KT P6SM VCTS SCT080CB=



000
FTUS43 KGID 300520
TAFGRI
TAF
KGRI 300520Z 3006/3106 32005KT P6SM SCT250
     FM301100 33005KT 4SM BR SKC
     FM301300 17009KT P6SM SKC=



000
FTUS43 KGID 300520
TAFGRI
TAF
KGRI 300520Z 3006/3106 32005KT P6SM SCT250
     FM301100 33005KT 4SM BR SKC
     FM301300 17009KT P6SM SKC=



    US Dept of Commerce
    National Oceanic and Atmospheric Administration
    National Weather Service
    1325 East West Highway
    Silver Spring, MD 20910
    Page Author: NWS Internet Services Team
Disclaimer
Information Quality
Credits
Glossary
Privacy Policy
Freedom of Information Act (FOIA)
About Us
Career Opportunities